Time;durP1;ratioP1;P1;durP2;ratioP2;P2;SDS_P1;SDS_P2;PMS_P1;PMS_P2;Temp;Humidity;BMP_temperature;BMP_pressure;BME280_temperature;BME280_humidity;BME280_pressure;Samples;Min_cycle;Max_cycle;Signal;HPM_P1;HPM_P2
2023/07/02 00:02:14;;;;;;;12.65;5.72;;;;;;;16.68;98.86;100138.63;5043700;28;20482;-79
2023/07/02 00:04:43;;;;;;;12.68;6.15;;;;;;;16.69;98.03;100134.97;5045861;28;20049;-79
2023/07/02 00:07:11;;;;;;;12.32;6.35;;;;;;;16.72;97.09;100137.22;5047369;28;20063;-78
2023/07/02 00:09:38;;;;;;;12.52;6.20;;;;;;;16.63;96.79;100130.50;5054308;28;20056;-78
2023/07/02 00:12:05;;;;;;;11.63;6.28;;;;;;;16.68;96.27;100139.44;5055275;28;20159;-77
2023/07/02 00:14:32;;;;;;;10.05;6.10;;;;;;;16.63;95.66;100136.59;5054977;28;20049;-76
2023/07/02 00:16:58;;;;;;;9.98;6.40;;;;;;;16.67;94.81;100137.81;5054703;28;20061;-78
2023/07/02 00:19:25;;;;;;;14.23;6.90;;;;;;;16.60;94.79;100132.53;5054129;28;20521;-77
2023/07/02 00:21:53;;;;;;;15.00;6.95;;;;;;;16.62;94.82;100123.59;5046389;28;20044;-78
2023/07/02 00:24:21;;;;;;;15.70;7.80;;;;;;;16.62;93.81;100132.31;5053162;28;20298;-78
2023/07/02 00:26:48;;;;;;;14.68;6.55;;;;;;;16.60;93.56;100131.72;5052881;28;20426;-78
2023/07/02 00:29:14;;;;;;;14.50;6.20;;;;;;;16.60;93.70;100129.06;5047921;28;20127;-76
2023/07/02 00:31:41;;;;;;;18.52;6.75;;;;;;;16.55;93.91;100126.25;5047684;28;20124;-78
2023/07/02 00:34:08;;;;;;;13.73;7.15;;;;;;;16.54;93.86;100114.09;5035699;28;20067;-79
2023/07/02 00:36:34;;;;;;;12.65;7.25;;;;;;;16.46;93.30;100107.19;5036697;28;20072;-79
2023/07/02 00:39:01;;;;;;;14.85;6.35;;;;;;;16.48;93.53;100122.81;5053824;28;20472;-79
2023/07/02 00:41:30;;;;;;;14.23;7.40;;;;;;;16.37;93.82;100124.25;5052938;28;20504;-78
2023/07/02 00:43:56;;;;;;;11.55;6.70;;;;;;;16.36;94.09;100124.47;5050110;28;20057;-78
2023/07/02 00:46:25;;;;;;;15.45;7.35;;;;;;;16.36;94.30;100119.19;5036161;28;20049;-77
2023/07/02 00:48:54;;;;;;;10.70;6.70;;;;;;;16.39;94.24;100118.78;5034564;28;20136;-77
2023/07/02 00:51:26;;;;;;;15.68;6.80;;;;;;;16.38;93.87;100109.22;5050825;28;20139;-79
2023/07/02 00:53:54;;;;;;;14.82;7.25;;;;;;;16.37;94.08;100110.25;5049062;28;20049;-78
2023/07/02 00:56:22;;;;;;;15.65;7.93;;;;;;;16.37;93.53;100110.25;5051682;28;20079;-78
2023/07/02 00:58:52;;;;;;;18.40;7.90;;;;;;;16.40;93.35;100104.56;5055489;28;20416;-77
2023/07/02 01:01:21;;;;;;;17.95;7.70;;;;;;;16.37;93.36;100104.97;5045822;28;20406;-77
2023/07/02 01:03:53;;;;;;;17.50;7.75;;;;;;;16.31;93.78;100106.59;5035649;28;20050;-77
2023/07/02 01:06:24;;;;;;;16.80;8.35;;;;;;;16.31;93.90;100108.44;5044682;28;20112;-76
2023/07/02 01:08:51;;;;;;;15.65;7.35;;;;;;;16.24;93.75;100108.44;5053042;28;20136;-78
2023/07/02 01:11:19;;;;;;;13.93;7.57;;;;;;;16.22;93.78;100102.56;5053155;28;20420;-77
2023/07/02 01:13:46;;;;;;;14.68;7.32;;;;;;;16.21;94.18;100101.75;5052949;28;20049;-78
2023/07/02 01:16:17;;;;;;;14.70;7.72;;;;;;;16.14;94.42;100106.22;5043736;28;20045;-77
2023/07/02 01:18:45;;;;;;;17.20;7.63;;;;;;;16.13;94.32;100099.31;5051276;28;20591;-75
2023/07/02 01:21:14;;;;;;;19.35;9.43;;;;;;;16.13;94.38;100107.22;5047544;28;20468;-76
2023/07/02 01:23:40;;;;;;;17.13;8.55;;;;;;;16.13;93.95;100106.41;5046780;28;20095;-76
2023/07/02 01:26:07;;;;;;;19.00;8.57;;;;;;;16.13;93.75;100109.06;5045813;28;20049;-77
2023/07/02 01:28:38;;;;;;;15.50;9.48;;;;;;;16.08;93.73;100099.09;5044356;28;20111;-77
2023/07/02 01:31:05;;;;;;;16.65;9.18;;;;;;;16.04;93.65;100112.94;5052551;28;20045;-77
2023/07/02 01:33:31;;;;;;;15.60;9.88;;;;;;;16.03;93.45;100109.50;5044978;28;20110;-76
2023/07/02 01:35:58;;;;;;;18.05;9.73;;;;;;;16.06;93.39;100101.16;5041231;28;20073;-77
2023/07/02 01:38:27;;;;;;;18.23;9.45;;;;;;;16.06;92.98;100109.09;5041095;28;20140;-76
2023/07/02 01:40:54;;;;;;;16.77;10.32;;;;;;;15.98;93.20;100106.66;5044524;28;20527;-77
2023/07/02 01:43:20;;;;;;;18.50;8.98;;;;;;;15.92;93.31;100097.72;5037605;28;20144;-77
2023/07/02 01:45:47;;;;;;;19.65;10.43;;;;;;;15.91;93.43;100105.84;5051331;28;20481;-77
2023/07/02 01:48:14;;;;;;;18.67;10.38;;;;;;;15.91;93.15;100098.72;5038460;28;20042;-77
2023/07/02 01:50:40;;;;;;;19.02;10.63;;;;;;;15.86;92.96;100093.25;5042658;28;20045;-76
2023/07/02 01:53:07;;;;;;;19.17;9.85;;;;;;;15.86;93.16;100105.63;5047370;28;20114;-75
2023/07/02 01:55:35;;;;;;;20.45;10.73;;;;;;;15.82;93.32;100093.84;5049643;28;20059;-76
2023/07/02 01:58:01;;;;;;;18.67;10.45;;;;;;;15.80;93.29;100103.81;5073347;23;20073;-80
2023/07/02 02:00:30;;;;;;;21.98;10.30;;;;;;;15.80;93.33;100104.59;5054018;28;20055;-80
2023/07/02 02:02:57;;;;;;;20.27;11.10;;;;;;;15.73;93.28;100103.78;5049000;28;20427;-80
2023/07/02 02:05:23;;;;;;;21.17;11.50;;;;;;;15.71;93.62;100100.53;5054325;28;20045;-80
2023/07/02 02:07:50;;;;;;;25.27;12.05;;;;;;;15.67;93.44;100107.22;5053846;28;20136;-80
2023/07/02 02:10:16;;;;;;;20.17;11.77;;;;;;;15.66;93.66;100102.16;5056895;28;20068;-80
2023/07/02 02:12:44;;;;;;;21.40;11.95;;;;;;;15.63;93.51;100103.38;5056398;28;20149;-80
2023/07/02 02:15:14;;;;;;;23.17;11.88;;;;;;;15.62;93.68;100106.22;5054824;28;20159;-81
2023/07/02 02:17:40;;;;;;;21.90;12.02;;;;;;;15.62;93.55;100104.38;5053413;28;20052;-82
2023/07/02 02:20:08;;;;;;;21.15;12.55;;;;;;;15.59;93.61;100110.91;5056330;28;20055;-82
2023/07/02 02:22:35;;;;;;;23.27;13.63;;;;;;;15.55;93.73;100112.28;5057540;28;20129;-81
2023/07/02 02:25:03;;;;;;;30.40;13.48;;;;;;;15.53;93.64;100103.75;5056638;28;20132;-81
2023/07/02 02:27:29;;;;;;;20.00;12.38;;;;;;;15.54;93.56;100112.47;5049400;28;20060;-81
2023/07/02 02:29:57;;;;;;;25.48;13.02;;;;;;;15.54;93.88;100104.56;5058080;28;20051;-81
2023/07/02 02:32:24;;;;;;;23.70;13.75;;;;;;;15.49;93.52;100107.00;5058987;28;20116;-80
2023/07/02 02:34:50;;;;;;;29.88;13.05;;;;;;;15.42;93.75;100106.97;5059109;28;20183;-81
2023/07/02 02:37:17;;;;;;;24.63;14.00;;;;;;;15.40;94.06;100102.91;5058166;28;20112;-81
2023/07/02 02:39:44;;;;;;;26.40;13.85;;;;;;;15.39;94.23;100101.28;5057793;28;20092;-81
2023/07/02 02:42:11;;;;;;;24.90;13.05;;;;;;;15.35;94.52;100094.78;5058507;28;20052;-81
2023/07/02 02:44:38;;;;;;;25.00;13.27;;;;;;;15.29;94.85;100083.22;5058575;28;20194;-82
2023/07/02 02:47:06;;;;;;;26.13;13.60;;;;;;;15.26;94.95;100086.25;5057631;28;20543;-80
2023/07/02 02:49:33;;;;;;;24.73;13.70;;;;;;;15.18;95.26;100092.53;5058976;28;20044;-80
2023/07/02 02:51:59;;;;;;;23.13;14.43;;;;;;;15.13;95.34;100097.56;5059177;28;20052;-80
2023/07/02 02:54:26;;;;;;;28.02;14.50;;;;;;;15.10;95.58;100097.19;5057875;28;20133;-80
2023/07/02 02:56:52;;;;;;;24.80;13.77;;;;;;;15.09;95.85;100109.53;5057510;28;20083;-78
2023/07/02 02:59:19;;;;;;;24.63;13.65;;;;;;;15.02;96.02;100094.72;5051346;28;20140;-79
2023/07/02 03:01:46;;;;;;;28.17;14.45;;;;;;;15.03;95.85;100118.25;5057205;28;20053;-80
2023/07/02 03:04:14;;;;;;;27.27;14.07;;;;;;;15.01;96.18;100115.00;5057870;28;20091;-82
2023/07/02 03:06:41;;;;;;;28.35;14.85;;;;;;;14.97;96.37;100112.94;5056992;28;20136;-80
2023/07/02 03:09:07;;;;;;;26.27;14.40;;;;;;;15.00;96.18;100118.63;5057255;28;20128;-80
2023/07/02 03:11:34;;;;;;;29.02;14.95;;;;;;;14.93;96.41;100115.97;5057407;28;20052;-81
2023/07/02 03:14:00;;;;;;;27.48;14.70;;;;;;;14.90;96.64;100119.00;5057881;28;20049;-81
2023/07/02 03:16:27;;;;;;;30.30;15.02;;;;;;;14.93;96.53;100123.88;5054225;28;20128;-81
2023/07/02 03:18:53;;;;;;;27.52;15.80;;;;;;;14.94;96.78;100125.50;5057745;28;20077;-80
2023/07/02 03:21:21;;;;;;;26.05;15.07;;;;;;;14.91;96.88;100125.88;5057591;28;20053;-81
2023/07/02 03:23:48;;;;;;;27.02;15.05;;;;;;;14.90;96.92;100124.25;5058758;28;20135;-80
2023/07/02 03:26:14;;;;;;;27.48;16.15;;;;;;;14.90;96.99;100124.25;5058810;28;20087;-81
2023/07/02 03:28:41;;;;;;;26.40;15.63;;;;;;;14.92;96.93;100126.69;5049734;28;20049;-80
2023/07/02 03:31:08;;;;;;;32.13;16.48;;;;;;;14.97;96.80;100126.94;5058186;28;20055;-80
2023/07/02 03:33:34;;;;;;;30.85;16.25;;;;;;;15.01;96.75;100140.53;5050140;28;20076;-80
2023/07/02 03:36:01;;;;;;;29.55;15.45;;;;;;;15.11;96.44;100140.97;5050486;28;20519;-81
2023/07/02 03:38:29;;;;;;;26.05;16.20;;;;;;;15.09;96.07;100129.81;5046243;28;20139;-78
2023/07/02 03:40:55;;;;;;;36.92;17.40;;;;;;;15.18;95.85;100144.41;5050582;28;20045;-80
2023/07/02 03:43:22;;;;;;;27.48;15.77;;;;;;;15.21;95.72;100146.66;5057184;28;20136;-80
2023/07/02 03:45:49;;;;;;;28.20;16.48;;;;;;;15.21;95.74;100146.66;5056243;28;20045;-79
2023/07/02 03:48:15;;;;;;;30.17;16.17;;;;;;;15.16;95.98;100143.81;5055927;28;20135;-80
2023/07/02 03:50:42;;;;;;;29.83;16.38;;;;;;;15.17;95.81;100148.06;5055773;28;20133;-78
2023/07/02 03:53:09;;;;;;;27.70;15.77;;;;;;;15.17;95.93;100148.06;5057010;28;20053;-81
2023/07/02 03:55:39;;;;;;;32.05;16.73;;;;;;;15.24;95.97;100156.81;5058599;28;20087;-79
2023/07/02 03:58:05;;;;;;;30.55;16.90;;;;;;;15.28;95.72;100158.84;5055673;28;20076;-80
2023/07/02 04:00:32;;;;;;;28.30;16.95;;;;;;;15.31;95.48;100162.91;5057387;28;20040;-79
2023/07/02 04:03:02;;;;;;;27.45;16.92;;;;;;;15.32;95.56;100175.09;5059440;28;20091;-80
2023/07/02 04:05:28;;;;;;;30.95;16.55;;;;;;;15.36;95.75;100175.50;5057558;28;20067;-80
2023/07/02 04:07:55;;;;;;;26.27;15.50;;;;;;;15.40;95.35;100182.81;5049111;28;20140;-79
2023/07/02 04:10:22;;;;;;;33.00;16.88;;;;;;;15.43;95.34;100189.53;5055891;28;20080;-79
2023/07/02 04:12:49;;;;;;;33.05;17.65;;;;;;;15.43;95.48;100195.63;5056616;28;20055;-80
2023/07/02 04:15:16;;;;;;;30.63;18.05;;;;;;;15.45;95.56;100198.88;5056899;28;20453;-79
2023/07/02 04:17:44;;;;;;;34.42;19.13;;;;;;;15.43;95.77;100203.53;5055827;28;20045;-80
2023/07/02 04:20:12;;;;;;;30.98;18.05;;;;;;;15.40;95.97;100198.66;5046851;28;20076;-78
2023/07/02 04:22:41;;;;;;;35.03;18.63;;;;;;;15.48;95.76;100203.75;5055574;28;20056;-80
2023/07/02 04:25:09;;;;;;;30.23;17.52;;;;;;;15.52;95.97;100207.63;5048815;28;20049;-80
2023/07/02 04:27:38;;;;;;;33.80;19.60;;;;;;;15.58;95.75;100204.22;5055018;28;20179;-80
2023/07/02 04:30:08;;;;;;;34.05;18.27;;;;;;;15.69;95.51;100212.53;5048144;28;20045;-80
2023/07/02 04:32:34;;;;;;;37.97;19.58;;;;;;;15.60;95.65;100217.19;5047579;28;20188;-80
2023/07/02 04:35:02;;;;;;;34.03;17.98;;;;;;;15.60;95.80;100207.44;5055496;28;20053;-80
2023/07/02 04:37:29;;;;;;;43.78;20.08;;;;;;;15.55;96.00;100212.50;5056145;28;20051;-80
2023/07/02 04:39:55;;;;;;;38.63;18.75;;;;;;;15.54;96.56;100216.16;5052667;28;20123;-81
2023/07/02 04:42:22;;;;;;;34.47;19.35;;;;;;;15.54;96.63;100215.31;5051631;28;20128;-80
2023/07/02 04:44:48;;;;;;;37.10;19.23;;;;;;;15.58;96.72;100214.78;5047839;28;20509;-82
2023/07/02 04:47:16;;;;;;;34.13;20.17;;;;;;;15.67;96.64;100219.84;5055412;28;20076;-81
2023/07/02 04:49:43;;;;;;;39.30;20.42;;;;;;;15.84;95.99;100221.09;5051526;28;20481;-79
2023/07/02 04:52:10;;;;;;;32.47;19.33;;;;;;;15.96;95.76;100237.16;5056629;28;20049;-77
2023/07/02 04:54:36;;;;;;;35.95;20.05;;;;;;;16.02;95.33;100229.25;5057372;28;20131;-79
2023/07/02 04:57:03;;;;;;;37.83;19.90;;;;;;;16.07;94.98;100237.34;5055228;28;20067;-80
2023/07/02 04:59:30;;;;;;;36.10;19.85;;;;;;;16.25;94.30;100234.94;5056549;28;20052;-80
2023/07/02 05:01:59;;;;;;;37.65;20.83;;;;;;;16.28;93.83;100244.28;5051173;28;20131;-80
2023/07/02 05:04:27;;;;;;;37.30;20.63;;;;;;;16.30;93.72;100252.00;5056140;28;20106;-81
2023/07/02 05:06:54;;;;;;;41.75;21.63;;;;;;;16.20;94.50;100247.94;5048414;28;20065;-80
2023/07/02 05:09:20;;;;;;;43.67;21.05;;;;;;;16.38;93.98;100254.47;5057256;28;20168;-81
2023/07/02 05:11:47;;;;;;;35.63;21.02;;;;;;;16.47;93.90;100258.53;5047387;28;20052;-80
2023/07/02 05:14:13;;;;;;;41.95;20.73;;;;;;;16.54;93.55;100262.00;5051364;28;20053;-80
2023/07/02 05:16:40;;;;;;;38.38;20.70;;;;;;;16.81;93.00;100266.25;5054569;28;20056;-81
2023/07/02 05:19:07;;;;;;;39.38;21.08;;;;;;;16.80;92.56;100269.91;5052430;28;20053;-80
2023/07/02 05:21:36;;;;;;;42.42;23.40;;;;;;;16.73;91.90;100269.09;5057237;28;20047;-81
2023/07/02 05:24:03;;;;;;;41.25;21.63;;;;;;;16.97;91.90;100267.66;5055937;28;20060;-78
2023/07/02 05:26:29;;;;;;;41.47;21.10;;;;;;;16.88;91.72;100267.06;5055234;28;20056;-80
2023/07/02 05:28:56;;;;;;;41.42;21.48;;;;;;;16.84;91.78;100278.25;5046472;28;20136;-80
2023/07/02 05:31:23;;;;;;;40.90;22.25;;;;;;;16.91;91.95;100271.94;5054519;28;20048;-81
2023/07/02 05:33:49;;;;;;;42.80;22.45;;;;;;;17.10;91.64;100280.00;5046231;28;20107;-81
2023/07/02 05:36:16;;;;;;;38.85;21.63;;;;;;;17.19;91.00;100282.22;5055951;28;20141;-79
2023/07/02 05:38:44;;;;;;;43.25;21.58;;;;;;;17.11;91.10;100277.16;5055859;28;20274;-79
2023/07/02 05:41:11;;;;;;;42.67;22.73;;;;;;;17.07;91.24;100277.78;5052468;28;20156;-81
2023/07/02 05:43:37;;;;;;;42.38;22.73;;;;;;;17.13;91.42;100277.78;5055568;28;20049;-79
2023/07/02 05:46:04;;;;;;;40.33;22.58;;;;;;;17.07;91.50;100283.06;5053683;28;20055;-78
2023/07/02 05:48:30;;;;;;;41.72;23.08;;;;;;;17.09;91.98;100284.47;5052221;28;20072;-80
2023/07/02 05:50:57;;;;;;;44.25;23.15;;;;;;;17.17;91.70;100283.47;5046124;28;20044;-79
2023/07/02 05:53:23;;;;;;;39.00;23.40;;;;;;;17.18;91.83;100287.72;5051351;28;20183;-80
2023/07/02 05:55:51;;;;;;;40.40;23.20;;;;;;;17.16;91.63;100279.19;5055273;28;20112;-80
2023/07/02 05:58:18;;;;;;;43.78;23.40;;;;;;;17.28;91.47;100292.59;5054927;28;20125;-80
2023/07/02 06:00:48;;;;;;;38.10;22.60;;;;;;;17.30;91.08;100291.34;5055644;28;20049;-82
2023/07/02 06:03:19;;;;;;;43.92;23.67;;;;;;;17.13;90.36;100290.19;5056106;28;20592;-82
2023/07/02 06:05:48;;;;;;;38.25;22.33;;;;;;;17.20;90.44;100296.25;5055687;28;20052;-79
2023/07/02 06:08:15;;;;;;;40.20;23.48;;;;;;;17.25;90.43;100291.16;5053957;28;20496;-80
2023/07/02 06:10:42;;;;;;;40.97;23.50;;;;;;;17.25;90.26;100288.53;5049152;28;20127;-79
2023/07/02 06:13:10;;;;;;;43.45;22.05;;;;;;;17.34;89.70;100292.56;5056045;28;20107;-81
2023/07/02 06:15:39;;;;;;;40.90;22.65;;;;;;;17.71;88.81;100301.63;5058807;28;20133;-83
2023/07/02 06:18:06;;;;;;;40.83;21.92;;;;;;;17.64;87.19;100286.75;5060519;28;20112;-81
2023/07/02 06:20:33;;;;;;;44.42;23.25;;;;;;;17.70;86.95;100276.16;5056414;28;20049;-79
2023/07/02 06:22:59;;;;;;;39.10;22.33;;;;;;;18.03;86.33;100286.56;5053599;28;20072;-80
2023/07/02 06:25:26;;;;;;;43.22;22.85;;;;;;;18.00;85.80;100280.88;5053922;28;20578;-80
2023/07/02 06:27:55;;;;;;;38.50;23.20;;;;;;;17.86;85.33;100269.59;5053836;28;20140;-80
2023/07/02 06:30:23;;;;;;;41.90;22.88;;;;;;;17.82;86.05;100279.78;5053916;28;20049;-79
2023/07/02 06:32:51;;;;;;;40.47;21.77;;;;;;;18.08;85.99;100292.03;5054936;28;20072;-79
2023/07/02 06:35:17;;;;;;;43.92;22.98;;;;;;;18.16;85.46;100289.13;5054182;28;20547;-79
2023/07/02 06:37:46;;;;;;;40.17;23.05;;;;;;;18.23;85.41;100295.22;5054146;28;20117;-80
2023/07/02 06:40:13;;;;;;;34.53;20.42;;;;;;;18.16;85.26;100297.09;5053393;28;20072;-79
2023/07/02 06:42:39;;;;;;;47.38;22.75;;;;;;;18.09;84.63;100293.66;5054068;28;20420;-79
2023/07/02 06:45:07;;;;;;;45.13;22.30;;;;;;;18.18;85.04;100300.34;5049097;28;20405;-80
2023/07/02 06:47:35;;;;;;;37.28;21.58;;;;;;;18.10;84.28;100297.94;5053194;28;20087;-79
2023/07/02 06:50:02;;;;;;;41.35;22.23;;;;;;;17.95;84.14;100300.09;5054184;28;20497;-80
2023/07/02 06:52:28;;;;;;;42.22;21.77;;;;;;;17.86;83.91;100304.81;5055004;28;20087;-81
2023/07/02 06:54:55;;;;;;;44.20;22.08;;;;;;;17.66;85.09;100313.84;5057077;28;20049;-80
2023/07/02 06:57:23;;;;;;;40.33;21.77;;;;;;;18.00;83.95;100304.72;5060885;28;20072;-81
2023/07/02 06:59:50;;;;;;;39.92;20.92;;;;;;;18.05;83.62;100311.00;5055426;28;20076;-80
2023/07/02 07:02:16;;;;;;;41.50;23.25;;;;;;;18.03;83.05;100306.94;5052582;28;20041;-80
2023/07/02 07:04:44;;;;;;;41.28;21.55;;;;;;;18.14;82.95;100309.72;5057273;28;20136;-81
2023/07/02 07:07:11;;;;;;;39.13;20.92;;;;;;;18.25;82.58;100310.88;5055910;28;20048;-81
2023/07/02 07:09:37;;;;;;;38.13;21.38;;;;;;;18.60;81.19;100313.06;5053356;28;20522;-79
2023/07/02 07:12:04;;;;;;;37.55;20.80;;;;;;;18.87;79.37;100309.22;5046599;28;20048;-80
2023/07/02 07:14:37;;;;;;;39.22;20.50;;;;;;;18.62;80.09;100305.75;5049630;28;20049;-80
2023/07/02 07:17:04;;;;;;;32.10;19.60;;;;;;;18.88;79.01;100306.34;5057357;28;20075;-81
2023/07/02 07:19:31;;;;;;;39.20;21.60;;;;;;;18.51;79.13;100309.88;5041150;28;20128;-80
2023/07/02 07:21:59;;;;;;;36.83;20.42;;;;;;;18.75;79.01;100309.13;5049217;28;20302;-80
2023/07/02 07:24:25;;;;;;;34.92;19.05;;;;;;;18.77;78.30;100315.00;5059115;28;20091;-79
2023/07/02 07:26:52;;;;;;;34.38;19.95;;;;;;;19.33;77.51;100315.91;5057505;28;20071;-81
2023/07/02 07:29:18;;;;;;;32.67;18.95;;;;;;;20.11;74.74;100308.81;5052862;28;20051;-81
2023/07/02 07:31:45;;;;;;;34.58;19.00;;;;;;;19.87;73.74;100304.44;5054615;28;20048;-80
2023/07/02 07:34:12;;;;;;;37.22;19.65;;;;;;;19.93;72.89;100305.38;5058528;28;20049;-81
2023/07/02 07:36:39;;;;;;;36.67;19.50;;;;;;;19.82;73.16;100306.97;5058646;28;20139;-81
2023/07/02 07:39:09;;;;;;;34.00;18.90;;;;;;;20.05;72.72;100307.03;5023464;28;20500;-80
2023/07/02 07:41:36;;;;;;;33.88;19.90;;;;;;;20.03;72.65;100303.00;5027254;28;20083;-78
2023/07/02 07:44:03;;;;;;;29.40;16.75;;;;;;;20.03;71.86;100305.66;5029952;28;20053;-79
2023/07/02 07:46:30;;;;;;;39.08;19.67;;;;;;;19.70;72.37;100304.25;5029761;28;20225;-80
2023/07/02 07:48:59;;;;;;;35.17;18.67;;;;;;;19.76;73.14;100316.63;5032468;28;20421;-81
2023/07/02 07:51:26;;;;;;;35.50;19.42;;;;;;;19.78;73.33;100327.03;5028200;28;20085;-81
2023/07/02 07:53:52;;;;;;;31.23;18.73;;;;;;;19.61;73.82;100315.41;5030157;28;20053;-80
2023/07/02 07:56:20;;;;;;;41.00;19.77;;;;;;;19.83;74.07;100319.22;5037793;28;20144;-80
2023/07/02 07:58:47;;;;;;;34.28;18.48;;;;;;;19.48;73.37;100303.88;5060698;23;20069;-80
2023/07/02 08:01:15;;;;;;;38.80;18.83;;;;;;;19.66;72.62;100320.84;5038232;28;20092;-80
2023/07/02 08:03:47;;;;;;;32.75;18.25;;;;;;;19.82;72.80;100318.41;5046164;28;20048;-80
2023/07/02 08:06:27;;;;;;;36.83;18.83;;;;;;;19.71;73.03;100315.69;5038842;28;20050;-81
2023/07/02 08:08:57;;;;;;;29.85;18.40;;;;;;;19.74;73.73;100321.34;5043127;28;20138;-80
2023/07/02 08:11:26;;;;;;;32.58;17.77;;;;;;;19.79;71.74;100299.44;5035902;28;20041;-80
2023/07/02 08:13:55;;;;;;;30.25;17.65;;;;;;;20.26;71.71;100323.53;5041768;28;20053;-80
2023/07/02 08:16:25;;;;;;;34.05;17.83;;;;;;;20.08;70.97;100309.25;5025551;28;20037;-80
2023/07/02 08:19:12;;;;;;;34.08;18.27;;;;;;;19.99;71.01;100320.41;5033047;28;20432;-80
2023/07/02 08:21:45;;;;;;;36.40;17.48;;;;;;;19.76;70.45;100306.03;5040535;28;20045;-81
2023/07/02 08:24:23;;;;;;;33.50;17.20;;;;;;;20.87;69.22;100323.16;5039548;28;20104;-82
2023/07/02 08:27:02;;;;;;;37.75;19.48;;;;;;;21.63;65.77;100308.06;5045792;28;20057;-81
2023/07/02 08:29:57;;;;;;;30.60;17.80;;;;;;;22.03;66.15;100330.19;5046155;28;20079;-83
2023/07/02 08:32:24;;;;;;;40.45;19.35;;;;;;;21.69;66.13;100336.41;5037184;28;20052;-77
2023/07/02 08:34:51;;;;;;;29.80;17.45;;;;;;;22.01;66.54;100342.09;5035462;28;20060;-79
2023/07/02 08:37:18;;;;;;;31.70;17.95;;;;;;;22.16;63.80;100335.22;5035858;28;20124;-79
2023/07/02 08:39:45;;;;;;;29.80;17.17;;;;;;;21.66;64.19;100344.88;5040944;28;20084;-81
2023/07/02 08:42:13;;;;;;;29.73;17.17;;;;;;;21.22;65.41;100338.38;5041853;28;20100;-78
2023/07/02 08:44:43;;;;;;;26.98;15.93;;;;;;;21.23;65.39;100340.78;5032813;28;20049;-79
2023/07/02 08:47:10;;;;;;;29.40;17.05;;;;;;;21.93;65.25;100345.94;5041985;28;20124;-79
2023/07/02 08:49:39;;;;;;;27.33;15.25;;;;;;;21.57;63.05;100330.31;5040344;28;20128;-79
2023/07/02 08:52:07;;;;;;;27.20;15.93;;;;;;;21.84;62.99;100337.50;5024718;28;20052;-79
2023/07/02 08:54:34;;;;;;;31.67;15.93;;;;;;;22.35;63.30;100343.00;5035640;28;20103;-80
2023/07/02 08:57:04;;;;;;;31.23;16.38;;;;;;;23.35;62.18;100348.31;5028497;28;20060;-79
2023/07/02 08:59:34;;;;;;;31.17;16.05;;;;;;;22.59;60.83;100333.81;5029985;28;20085;-80
2023/07/02 09:02:01;;;;;;;30.63;16.20;;;;;;;22.46;60.79;100329.59;5022293;28;20058;-80
2023/07/02 09:04:28;;;;;;;34.10;18.40;;;;;;;21.87;62.81;100349.53;5026508;28;20133;-79
2023/07/02 09:07:05;;;;;;;32.38;17.48;;;;;;;21.74;63.35;100339.19;5051253;28;20045;-79
2023/07/02 09:09:31;;;;;;;30.02;17.50;;;;;;;22.94;61.87;100338.09;5053468;28;20492;-80
2023/07/02 09:11:58;;;;;;;35.35;17.70;;;;;;;23.32;59.52;100339.97;5055940;28;20050;-80
2023/07/02 09:14:27;;;;;;;29.65;17.23;;;;;;;23.60;59.96;100341.72;5055336;28;20116;-81
2023/07/02 09:17:08;;;;;;;27.80;17.92;;;;;;;24.63;58.46;100331.78;5050349;28;20101;-81
2023/07/02 09:19:36;;;;;;;31.30;17.57;;;;;;;23.21;58.77;100340.88;5036082;28;20050;-80
2023/07/02 09:22:08;;;;;;;27.05;17.35;;;;;;;22.88;59.38;100339.09;5039358;28;20045;-79
2023/07/02 09:24:38;;;;;;;29.63;17.88;;;;;;;23.08;60.46;100347.41;5039605;28;20060;-81
2023/07/02 09:27:06;;;;;;;31.13;18.15;;;;;;;23.88;60.78;100340.69;5038625;28;20528;-81
2023/07/02 09:29:35;;;;;;;28.45;17.50;;;;;;;23.96;59.86;100343.72;5038020;28;20050;-80
2023/07/02 09:32:04;;;;;;;30.10;17.73;;;;;;;24.07;59.77;100350.81;5035998;28;20058;-81
2023/07/02 09:34:35;;;;;;;30.42;18.02;;;;;;;23.30;59.75;100356.25;5037547;28;20041;-80
2023/07/02 09:37:04;;;;;;;31.55;18.02;;;;;;;23.87;59.63;100355.91;5035469;28;20057;-80
2023/07/02 09:39:32;;;;;;;31.23;18.88;;;;;;;23.41;60.19;100346.50;5032055;28;20052;-80
2023/07/02 09:44:55;;;;;;;28.70;18.65;;;;;;;22.52;61.71;100343.81;5031754;28;20053;-81
2023/07/02 09:47:24;;;;;;;33.80;18.55;;;;;;;22.16;62.43;100339.75;5041356;28;20498;-82
2023/07/02 09:49:55;;;;;;;33.78;18.35;;;;;;;21.62;62.35;100327.75;5042688;28;20102;-81
2023/07/02 09:52:23;;;;;;;29.90;17.60;;;;;;;21.26;64.19;100337.66;5035477;28;20101;-81
2023/07/02 09:54:51;;;;;;;35.65;19.85;;;;;;;21.29;65.34;100305.22;5032117;28;20115;-82
2023/07/02 09:57:18;;;;;;;37.72;19.10;;;;;;;21.40;66.32;100315.06;5046747;28;20049;-82
2023/07/02 09:59:44;;;;;;;32.85;18.67;;;;;;;21.58;64.93;100331.94;5062634;28;20285;-81
2023/07/02 10:02:12;;;;;;;27.77;17.88;;;;;;;21.91;65.12;100342.69;5059355;28;20079;-81
2023/07/02 10:04:43;;;;;;;32.03;17.63;;;;;;;21.98;65.05;100340.72;5060697;28;20071;-82
2023/07/02 10:07:12;;;;;;;31.25;17.77;;;;;;;21.78;64.25;100348.28;5060398;28;20049;-82
2023/07/02 10:09:39;;;;;;;31.02;18.40;;;;;;;21.03;64.04;100337.63;5054145;28;20563;-82
2023/07/02 12:39:39;;;;;;;21.70;10.88;;;;;;;22.04;53.27;100307.00;4881794;29;20067;-81
2023/07/02 12:42:43;;;;;;;20.58;11.57;;;;;;;22.68;53.71;100307.56;4852774;29;20092;-81
2023/07/02 12:45:19;;;;;;;21.38;11.70;;;;;;;23.31;53.53;100336.50;4910915;29;20048;-82
2023/07/02 12:50:19;;;;;;;22.80;12.07;;;;;;;22.76;52.60;100317.78;4982195;23;20058;-78
2023/07/02 12:52:46;;;;;;;20.48;11.95;;;;;;;23.05;53.22;100327.34;4959662;28;20071;-79
2023/07/02 12:55:14;;;;;;;21.35;12.23;;;;;;;23.23;53.18;100322.75;4960086;28;20046;-78
2023/07/02 12:57:41;;;;;;;21.63;11.63;;;;;;;22.68;53.55;100321.69;4952840;28;20523;-78
2023/07/02 13:00:12;;;;;;;20.77;12.25;;;;;;;22.49;54.59;100342.44;4959726;28;20494;-81
2023/07/02 13:02:40;;;;;;;22.48;12.45;;;;;;;22.23;55.03;100351.03;4959414;29;20040;-80
2023/07/02 13:05:41;;;;;;;;;;;;;;;;;;;;;
2023/07/02 13:08:08;;;;;;;28.95;13.35;;;;;;;22.29;54.92;100338.63;4951845;29;20602;-78
2023/07/02 13:10:57;;;;;;;23.20;14.00;;;;;;;22.56;55.50;100347.63;4959166;28;20515;-78
2023/07/02 13:13:29;;;;;;;21.85;12.50;;;;;;;22.74;55.86;100339.38;4953826;28;20046;-79
2023/07/02 13:15:57;;;;;;;24.65;13.23;;;;;;;22.68;55.09;100327.03;4961598;28;20133;-78
2023/07/02 13:21:47;;;;;;;23.73;13.27;;;;;;;22.60;55.12;100327.44;4952610;29;20525;-79
2023/07/02 13:27:21;;;;;;;26.38;13.63;;;;;;;22.75;55.39;100343.66;4958162;29;20071;-80
2023/07/02 13:30:00;;;;;;;23.67;13.52;;;;;;;22.92;55.19;100343.69;4963571;28;20054;-79
2023/07/02 13:32:39;;;;;;;21.52;13.25;;;;;;;22.54;55.17;100320.41;4962042;29;20448;-79
2023/07/02 13:35:43;;;;;;;26.33;13.77;;;;;;;22.45;55.13;100337.84;4951117;29;20074;-80
2023/07/02 13:38:10;;;;;;;22.83;12.50;;;;;;;23.15;55.54;100350.72;4948379;28;20055;-80
2023/07/02 13:40:40;;;;;;;24.13;12.57;;;;;;;23.13;54.07;100336.81;4963537;29;20138;-80
2023/07/02 13:43:19;;;;;;;32.78;14.63;;;;;;;22.93;55.25;100323.16;4959474;28;20043;-79
2023/07/02 13:45:50;;;;;;;25.67;13.95;;;;;;;23.13;55.34;100356.28;4960478;29;20062;-78
2023/07/02 13:48:17;;;;;;;23.35;13.48;;;;;;;23.10;54.87;100318.59;4956053;28;20096;-77
2023/07/02 13:50:46;;;;;;;24.85;12.40;;;;;;;23.19;54.06;100322.44;4956454;28;20051;-80
2023/07/02 13:53:13;;;;;;;25.17;13.32;;;;;;;23.02;53.95;100319.84;4955911;29;20059;-78
2023/07/02 13:55:42;;;;;;;23.27;13.63;;;;;;;22.97;54.46;100335.75;4959192;28;20040;-79
2023/07/02 13:58:13;;;;;;;25.27;13.48;;;;;;;22.96;54.15;100344.00;4959822;28;20067;-80